Aérodrome :
LOGIN :

S'inscrire | Disclaimer

   EN    FR    IT 

 










Légende :    VFR   VFR Marginal   IFR   IFR Intensif   IFR Très Intensif
Visi : 
Plafond : 
>= 8 km
>= 3000ft
5 à 8 km
1000 à 3000 ft
1500m à 5 km
500 à 1000 ft
800 à 1500m
200 à 500 ft
< 800m
< 200 ft
Symboles :   Orages  Brouillard  Fortes neiges  Fortes précipitations  Vent > 20 kt
SIGMETs :   Divers  Orages  Givrage  Turbulence  Onde Orograph.  Cendres Volcan.







- Altitude de l'aérodrome : 499 ft
- Code IATA : TLS
- Voir les cartes d'approche


LFBO - Toulouse / Blagnac

DERNIER METAR :
  • 270400Z AUTO 12011KT 9999 FEW018 17/14 Q1016 TEMPO BKN014

METARs EXPIRÉS :
  • 270330Z AUTO 13011KT 9999 BKN016 18/15 Q1016 TEMPO BKN014
  • 270300Z AUTO 13009KT 9999 OVC016 19/15 Q1016 TEMPO BKN014
  • 270230Z AUTO 13008KT 9999 OVC016 19/15 Q1016 TEMPO BKN014
  • 270200Z AUTO 13009KT 9999 OVC016 19/15 Q1017 TEMPO BKN014
  • 270130Z AUTO 16006KT 9999 OVC016 19/15 Q1017 TEMPO BKN014

TAF AMD TAF LFBO
Valide du 27 à 00h jusqu'au 28 à 06h UTC


270005Z 2700/2806 18005KT CAVOK
BECMG 2703/2705 12012KT
TEMPO 2700/2707 BKN014
ATIS : +33 5 62 74 66 36
Pas de NOTAMs connus pour ce terrain.



MET'MAP, la Météo Aéronautique d'un coup d'oeil ! - Copyright ORBIFLY Décembre 2007 - Disclaimer

ORBIFLY MET'MAP TEAM :

Programmation & Développement : Alexandra Zaïnal
Conception & Développement : Baudouin d'Aumeries
Co-Programmation & Développement : Marc-Olivier Méhu
Soutien technique & logistique : Manuel Goepfert

Contact : metmap@orbifly.com




SOURCES & CREDITS :

   NOAA